Time;durP1;ratioP1;P1;durP2;ratioP2;P2;SDS_P1;SDS_P2;PMS_P1;PMS_P2;Temp;Humidity;BMP_temperature;BMP_pressure;BME280_temperature;BME280_humidity;BME280_pressure;Samples;Min_cycle;Max_cycle;Signal;HPM_P1;HPM_P2
2023/01/10 06:24:31;;;;;;;43.40;4.07;;;;;;;;;;5080367;27;20399;-65
2023/01/10 06:26:57;;;;;;;15.80;4.22;;;;;;;;;;5078157;28;20048;-68
2023/01/10 06:29:23;;;;;;;17.92;3.25;;;;;;;;;;5076989;28;20059;-68
2023/01/10 06:31:49;;;;;;;13.05;1.95;;;;;;;;;;5059156;28;20053;-68
2023/01/10 06:34:15;;;;;;;9.70;1.20;;;;;;;;;;5064706;28;20088;-68
2023/01/10 06:36:41;;;;;;;9.38;1.52;;;;;;;;;;5063250;28;20021;-68
2023/01/10 06:39:07;;;;;;;12.15;2.10;;;;;;;;;;5061419;28;20025;-66
2023/01/10 06:41:33;;;;;;;8.82;2.25;;;;;;;;;;5088128;28;20017;-67
2023/01/10 06:43:59;;;;;;;9.95;1.73;;;;;;;;;;5089301;28;20086;-66
2023/01/10 06:46:25;;;;;;;13.13;2.13;;;;;;;;;;5076369;28;20123;-69
2023/01/10 06:48:51;;;;;;;15.73;1.92;;;;;;;;;;5067316;28;20135;-69
2023/01/10 06:51:17;;;;;;;7.15;2.10;;;;;;;;;;5069131;28;20024;-73
2023/01/10 06:53:44;;;;;;;22.83;2.97;;;;;;;;;;5070709;28;20099;-73
2023/01/10 06:56:10;;;;;;;15.27;2.22;;;;;;;;;;5089256;28;20409;-72
2023/01/10 06:58:40;;;;;;;2.30;1.40;;;;;;;;;;5088685;28;20505;-73
2023/01/10 07:01:07;;;;;;;10.75;2.35;;;;;;;;;;5089022;28;20024;-73
2023/01/10 07:03:33;;;;;;;5.85;1.67;;;;;;;;;;5090120;28;20031;-78
2023/01/10 07:06:02;;;;;;;5.28;1.52;;;;;;;;;;5094989;28;20078;-77
2023/01/10 07:08:28;;;;;;;11.38;1.50;;;;;;;;;;5088732;28;20028;-79
2023/01/10 07:10:56;;;;;;;5.18;1.42;;;;;;;;;;5086562;28;20445;-80
2023/01/10 07:13:23;;;;;;;5.32;1.17;;;;;;;;;;5072478;28;20052;-80
2023/01/10 07:15:48;;;;;;;3.65;1.08;;;;;;;;;;5070733;28;20036;-79
2023/01/10 07:18:15;;;;;;;4.45;1.10;;;;;;;;;;5070875;28;20029;-79
2023/01/10 07:20:41;;;;;;;4.20;1.30;;;;;;;;;;5071433;28;20017;-79
2023/01/10 07:23:07;;;;;;;6.47;1.83;;;;;;;;;;5071784;28;20483;-79
2023/01/10 07:25:33;;;;;;;7.57;1.38;;;;;;;;;;5069820;28;20036;-79
2023/01/10 07:27:59;;;;;;;2.60;1.20;;;;;;;;;;5071910;28;20017;-79
2023/01/10 07:30:25;;;;;;;1.63;1.38;;;;;;;;;;5070405;28;20367;-79
2023/01/10 07:33:00;;;;;;;3.38;1.20;;;;;;;;;;5070885;28;20110;-79
2023/01/10 07:35:26;;;;;;;15.07;1.98;;;;;;;;;;5060159;28;20040;-79
2023/01/10 07:37:52;;;;;;;1.30;1.15;;;;;;;;;;5058297;28;20031;-79
2023/01/10 07:40:18;;;;;;;7.95;1.38;;;;;;;;;;5057438;28;20386;-79
2023/01/10 07:42:44;;;;;;;1.73;1.17;;;;;;;;;;5057956;28;20029;-79
2023/01/10 07:45:10;;;;;;;5.68;1.30;;;;;;;;;;5060654;28;20074;-79
2023/01/10 07:47:36;;;;;;;2.58;1.02;;;;;;;;;;5074635;28;20527;-77
2023/01/10 07:50:02;;;;;;;1.17;1.08;;;;;;;;;;5074408;28;20024;-77
2023/01/10 07:52:28;;;;;;;1.20;1.10;;;;;;;;;;5074730;28;20029;-77
2023/01/10 07:54:54;;;;;;;2.30;1.33;;;;;;;;;;5074759;28;20039;-77
2023/01/10 07:57:20;;;;;;;1.70;1.33;;;;;;;;;;5074611;28;20025;-77
2023/01/10 07:59:46;;;;;;;1.05;1.05;;;;;;;;;;5074300;28;20035;-77
2023/01/10 08:02:12;;;;;;;1.58;1.20;;;;;;;;;;5073192;28;20363;-78
2023/01/10 08:04:38;;;;;;;1.65;1.23;;;;;;;;;;5074588;28;20100;-78
2023/01/10 08:07:04;;;;;;;4.72;1.30;;;;;;;;;;5074528;28;20115;-79
2023/01/10 08:09:30;;;;;;;2.22;1.20;;;;;;;;;;5074341;28;20024;-78
2023/01/10 08:11:56;;;;;;;2.00;0.98;;;;;;;;;;5073403;28;20115;-79
2023/01/10 08:14:22;;;;;;;7.97;1.88;;;;;;;;;;5073536;28;20028;-78
2023/01/10 08:16:48;;;;;;;3.78;1.60;;;;;;;;;;5074254;28;20033;-77
2023/01/10 08:20:00;;;;;;;7.05;1.75;;;;;;;;;;5089003;27;20445;-35
2023/01/10 08:22:27;;;;;;;9.27;2.35;;;;;;;;;;5089261;28;20036;-36
2023/01/10 08:24:53;;;;;;;2.88;1.63;;;;;;;;;;5089340;28;20028;-35
2023/01/10 08:27:19;;;;;;;10.18;1.92;;;;;;;;;;5089375;28;20063;-36
2023/01/10 08:29:45;;;;;;;7.60;1.90;;;;;;;;;;5088936;28;20024;-37
2023/01/10 08:32:11;;;;;;;10.43;1.95;;;;;;;;;;5089299;28;20686;-36
2023/01/10 08:34:37;;;;;;;16.98;1.88;;;;;;;;;;5089158;28;20368;-35
2023/01/10 08:37:03;;;;;;;8.32;1.60;;;;;;;;;;5089008;28;20020;-35
2023/01/10 08:39:29;;;;;;;8.35;2.40;;;;;;;;;;5088552;28;20074;-36
2023/01/10 08:41:56;;;;;;;4.80;1.48;;;;;;;;;;5087982;28;20028;-35
2023/01/10 08:44:22;;;;;;;7.10;1.38;;;;;;;;;;5087655;28;20444;-36
2023/01/10 08:46:48;;;;;;;5.00;1.20;;;;;;;;;;5087590;28;20501;-36
2023/01/10 08:49:14;;;;;;;7.38;2.25;;;;;;;;;;5088711;28;20052;-36
2023/01/10 08:51:40;;;;;;;7.15;1.45;;;;;;;;;;5088719;28;20031;-37
2023/01/10 08:54:06;;;;;;;5.10;1.30;;;;;;;;;;5087680;28;20078;-36
2023/01/10 08:56:32;;;;;;;4.45;1.25;;;;;;;;;;5088956;28;20028;-35
2023/01/10 08:58:58;;;;;;;4.88;1.20;;;;;;;;;;5088285;28;20028;-35
2023/01/10 09:01:24;;;;;;;1.75;0.95;;;;;;;;;;5088709;28;20032;-35
2023/01/10 09:03:50;;;;;;;6.00;1.58;;;;;;;;;;5088583;28;20547;-36
2023/01/10 09:06:16;;;;;;;3.30;1.02;;;;;;;;;;5088629;28;20017;-35
2023/01/10 09:08:42;;;;;;;3.15;1.08;;;;;;;;;;5088166;28;20035;-35
2023/01/10 09:11:08;;;;;;;3.97;1.50;;;;;;;;;;5088600;28;20020;-35
2023/01/10 09:13:34;;;;;;;2.72;1.30;;;;;;;;;;5088391;28;20505;-36
2023/01/10 09:16:00;;;;;;;5.88;1.15;;;;;;;;;;5088553;28;20024;-35
2023/01/10 09:18:26;;;;;;;2.13;1.42;;;;;;;;;;5086950;28;20035;-36
2023/01/10 09:20:53;;;;;;;4.88;1.15;;;;;;;;;;5086669;28;20021;-35
2023/01/10 09:23:20;;;;;;;6.82;1.30;;;;;;;;;;5087349;28;20056;-36
2023/01/10 09:25:46;;;;;;;;;;;;;;;;;;5089103;28;20048;-36
2023/01/10 09:28:13;;;;;;;4.45;1.50;;;;;;;;;;5088347;28;19943;-36
2023/01/10 09:30:39;;;;;;;6.47;1.50;;;;;;;;;;5078270;28;20024;-36
2023/01/10 09:33:05;;;;;;;21.83;1.83;;;;;;;;;;5074823;28;20036;-36
2023/01/10 09:35:32;;;;;;;13.13;1.83;;;;;;;;;;5074540;28;20028;-34
2023/01/10 09:38:02;;;;;;;9.93;2.20;;;;;;;;;;5074647;28;20397;-33
2023/01/10 09:40:35;;;;;;;8.43;1.70;;;;;;;;;;5074445;28;20020;-33
2023/01/10 09:43:07;;;;;;;7.05;1.73;;;;;;;;;;5074452;28;20028;-36
2023/01/10 09:45:36;;;;;;;7.43;1.73;;;;;;;;;;5073017;28;20070;-36
2023/01/10 09:48:04;;;;;;;7.50;2.55;;;;;;;;;;5074245;28;20471;-36
2023/01/10 09:50:30;;;;;;;12.15;2.42;;;;;;;;;;5073957;28;20028;-36
2023/01/10 09:52:58;;;;;;;3.75;1.30;;;;;;;;;;5074455;28;20210;-36
2023/01/10 09:55:26;;;;;;;10.77;1.52;;;;;;;;;;5074353;28;20535;-36
2023/01/10 09:57:53;;;;;;;3.55;1.70;;;;;;;;;;5074143;28;20099;-36
2023/01/10 10:00:22;;;;;;;4.72;1.50;;;;;;;;;;5074116;28;20409;-36
2023/01/10 10:02:51;;;;;;;3.95;1.40;;;;;;;;;;5074297;28;20032;-37
2023/01/10 10:05:25;;;;;;;14.80;1.67;;;;;;;;;;5074051;28;20023;-37
2023/01/10 10:08:01;;;;;;;4.93;1.58;;;;;;;;;;5074064;28;20516;-36
2023/01/10 10:10:53;;;;;;;5.55;1.70;;;;;;;;;;5072293;28;20070;-36
2023/01/10 10:13:35;;;;;;;3.50;1.30;;;;;;;;;;5057829;28;20046;-36
2023/01/10 10:16:07;;;;;;;5.85;1.63;;;;;;;;;;5072543;28;20024;-36
2023/01/10 10:18:53;;;;;;;6.05;1.17;;;;;;;;;;5073547;28;20035;-36
2023/01/10 10:21:37;;;;;;;4.70;1.25;;;;;;;;;;5073787;28;20078;-36
2023/01/10 10:24:29;;;;;;;2.63;1.08;;;;;;;;;;5073709;28;20052;-36
2023/01/10 10:26:56;;;;;;;4.47;1.40;;;;;;;;;;5069604;28;20127;-36
2023/01/10 10:29:25;;;;;;;4.57;1.48;;;;;;;;;;5073332;28;20066;-36
2023/01/10 10:32:10;;;;;;;3.15;1.70;;;;;;;;;;5073408;28;20017;-36
2023/01/10 10:34:45;;;;;;;5.15;1.10;;;;;;;;;;5073553;28;20048;-36
2023/01/10 10:37:23;;;;;;;3.13;0.80;;;;;;;;;;5073566;28;20143;-36
2023/01/10 10:39:49;;;;;;;3.88;1.25;;;;;;;;;;5073403;28;20031;-36
2023/01/10 10:42:16;;;;;;;7.35;1.08;;;;;;;;;;5072237;28;20024;-36
2023/01/10 10:44:53;;;;;;;9.20;2.83;;;;;;;;;;5073231;28;20031;-35
2023/01/10 10:47:19;;;;;;;;;;;;;;;;;;5073655;28;20379;-36
2023/01/10 10:49:48;;;;;;;20.30;1.50;;;;;;;;;;5073105;28;19908;-36
2023/01/10 10:52:33;;;;;;;3.83;1.30;;;;;;;;;;5073095;28;20035;-36
2023/01/10 10:54:59;;;;;;;9.43;1.48;;;;;;;;;;5073213;28;20099;-37
2023/01/10 10:57:27;;;;;;;10.82;1.55;;;;;;;;;;5071696;28;20032;-37
2023/01/10 10:59:53;;;;;;;3.00;1.38;;;;;;;;;;5071366;28;20025;-33
2023/01/10 11:02:19;;;;;;;6.15;1.10;;;;;;;;;;5073006;28;20066;-32
2023/01/10 11:04:45;;;;;;;7.43;1.27;;;;;;;;;;5072872;28;20442;-32
2023/01/10 11:07:14;;;;;;;9.93;1.80;;;;;;;;;;5072777;28;20020;-32
2023/01/10 11:09:56;;;;;;;8.80;1.40;;;;;;;;;;5072471;28;20593;-32
2023/01/10 11:12:27;;;;;;;1.45;1.20;;;;;;;;;;5072849;28;20024;-32
2023/01/10 11:14:53;;;;;;;5.53;1.63;;;;;;;;;;5072640;28;20407;-32
2023/01/10 11:17:24;;;;;;;4.18;1.20;;;;;;;;;;5072619;28;20029;-33
2023/01/10 11:19:58;;;;;;;9.75;1.63;;;;;;;;;;5072339;28;20028;-32
2023/01/10 11:22:24;;;;;;;5.43;1.20;;;;;;;;;;5072582;28;20120;-32
2023/01/10 11:24:52;;;;;;;11.70;1.17;;;;;;;;;;5072470;28;20463;-32
2023/01/10 11:27:23;;;;;;;2.92;1.30;;;;;;;;;;5072941;28;20274;-34
2023/01/10 11:29:56;;;;;;;11.75;1.33;;;;;;;;;;5071943;28;20031;-34
2023/01/10 11:32:27;;;;;;;8.10;1.58;;;;;;;;;;5072279;28;20104;-34
2023/01/10 11:34:57;;;;;;;6.22;1.40;;;;;;;;;;5072320;28;20031;-35
2023/01/10 11:37:28;;;;;;;6.28;1.90;;;;;;;;;;5072312;28;20033;-35
2023/01/10 11:40:09;;;;;;;7.40;1.45;;;;;;;;;;5071869;28;20505;-34
2023/01/10 11:42:35;;;;;;;15.90;2.13;;;;;;;;;;5072189;28;20673;-34
2023/01/10 11:45:16;;;;;;;16.35;2.58;;;;;;;;;;5071965;28;20103;-34
2023/01/10 11:47:43;;;;;;;8.50;1.38;;;;;;;;;;5070320;28;20025;-35
2023/01/10 11:50:09;;;;;;;7.60;1.50;;;;;;;;;;5071525;28;20141;-35
2023/01/10 11:52:36;;;;;;;12.33;2.13;;;;;;;;;;5071974;28;20024;-34
2023/01/10 11:55:07;;;;;;;8.80;1.33;;;;;;;;;;5072035;28;20028;-34
2023/01/10 11:57:33;;;;;;;3.03;1.08;;;;;;;;;;5072319;28;20048;-34
2023/01/10 12:00:02;;;;;;;3.50;1.30;;;;;;;;;;5071665;28;20386;-35
2023/01/10 12:02:30;;;;;;;3.65;1.60;;;;;;;;;;5072123;28;20020;-35
2023/01/10 12:04:58;;;;;;;5.03;2.28;;;;;;;;;;5071951;28;20027;-35
2023/01/10 12:07:24;;;;;;;6.97;1.63;;;;;;;;;;5072072;28;20021;-34
2023/01/10 12:10:00;;;;;;;4.70;1.30;;;;;;;;;;5071462;28;20500;-35
2023/01/10 12:12:28;;;;;;;0.95;0.80;;;;;;;;;;5072117;28;20031;-35
2023/01/10 12:14:55;;;;;;;6.88;1.33;;;;;;;;;;5072045;28;20054;-33
2023/01/10 12:17:29;;;;;;;2.78;0.98;;;;;;;;;;5071919;28;20025;-35
2023/01/10 12:19:59;;;;;;;5.15;1.20;;;;;;;;;;5071437;28;20115;-35
2023/01/10 12:22:29;;;;;;;4.45;1.60;;;;;;;;;;5071830;28;20029;-34
2023/01/10 12:24:56;;;;;;;5.20;1.63;;;;;;;;;;5071720;28;20042;-35
2023/01/10 12:27:23;;;;;;;5.15;1.40;;;;;;;;;;5071679;28;20024;-35
2023/01/10 12:29:55;;;;;;;6.78;1.15;;;;;;;;;;5071405;28;20100;-33
2023/01/10 12:32:28;;;;;;;3.33;0.95;;;;;;;;;;5070218;28;20117;-34
2023/01/10 12:34:59;;;;;;;5.78;1.42;;;;;;;;;;5069582;28;20035;-34
2023/01/10 12:37:29;;;;;;;4.80;1.48;;;;;;;;;;5071493;28;20390;-34
2023/01/10 12:40:25;;;;;;;8.90;2.03;;;;;;;;;;5071177;28;20022;-35
2023/01/10 12:45:46;;;;;;;4.80;1.38;;;;;;;;;;5029554;28;20072;-34
2023/01/10 12:48:14;;;;;;;2.97;1.10;;;;;;;;;;5049613;22;20065;-39
2023/01/10 12:50:43;;;;;;;6.20;1.30;;;;;;;;;;5051034;28;20025;-40
2023/01/10 12:53:09;;;;;;;4.43;1.50;;;;;;;;;;5051458;28;20032;-41
2023/01/10 12:55:43;;;;;;;7.28;1.40;;;;;;;;;;5051661;28;20021;-42
2023/01/10 12:58:17;;;;;;;9.60;1.67;;;;;;;;;;5056795;28;20071;-47
2023/01/10 13:00:45;;;;;;;3.47;1.10;;;;;;;;;;5070751;28;20097;-45
2023/01/10 13:03:13;;;;;;;13.55;1.45;;;;;;;;;;5071618;28;20029;-41
2023/01/10 13:05:39;;;;;;;5.93;1.52;;;;;;;;;;5073421;28;20044;-41
2023/01/10 13:08:13;;;;;;;5.15;2.03;;;;;;;;;;5074963;28;20020;-43
2023/01/10 13:10:43;;;;;;;5.43;1.50;;;;;;;;;;5072275;28;20478;-45
2023/01/10 13:13:12;;;;;;;11.30;1.85;;;;;;;;;;5074245;28;20029;-46
2023/01/10 13:15:41;;;;;;;11.38;1.38;;;;;;;;;;5073599;28;20103;-45
2023/01/10 13:18:17;;;;;;;8.43;2.20;;;;;;;;;;5073737;28;20107;-45
2023/01/10 13:20:44;;;;;;;19.83;3.40;;;;;;;;;;5073785;28;20029;-43
2023/01/10 13:23:20;;;;;;;10.48;2.33;;;;;;;;;;5070979;28;20054;-45
2023/01/10 13:25:56;;;;;;;16.55;2.22;;;;;;;;;;5072031;28;20107;-42
2023/01/10 13:28:24;;;;;;;13.00;2.50;;;;;;;;;;5073700;28;20466;-43
2023/01/10 13:30:55;;;;;;;57.67;5.07;;;;;;;;;;5072666;28;20063;-40
2023/01/10 13:33:22;;;;;;;30.02;3.85;;;;;;;;;;5074754;28;20024;-45
2023/01/10 13:35:48;;;;;;;;;;;;;;;;;;5074914;28;20038;-44
2023/01/10 13:38:16;;;;;;;30.77;4.28;;;;;;;;;;5074851;28;19908;-41
2023/01/10 13:40:55;;;;;;;35.60;3.33;;;;;;;;;;5074464;28;20432;-41
2023/01/10 13:43:33;;;;;;;33.15;2.75;;;;;;;;;;5074853;28;20025;-40
2023/01/10 13:46:17;;;;;;;19.83;3.40;;;;;;;;;;5074354;28;20028;-42
2023/01/10 13:49:03;;;;;;;29.73;4.25;;;;;;;;;;5072861;28;20394;-42
2023/01/10 13:51:30;;;;;;;26.85;2.65;;;;;;;;;;5023895;28;20037;-42
2023/01/10 13:53:58;;;;;;;30.88;5.72;;;;;;;;;;5074405;28;20021;-43
2023/01/10 13:56:33;;;;;;;29.00;2.88;;;;;;;;;;5074553;28;20517;-41
2023/01/10 14:04:36;;;;;;;12.98;2.10;;;;;;;;;;5063684;28;20028;-42
2023/01/10 14:07:05;;;;;;;16.27;2.60;;;;;;;;;;5056340;28;20056;-40
2023/01/10 14:09:34;;;;;;;14.15;3.05;;;;;;;;;;5059453;28;20017;-42
2023/01/10 14:12:02;;;;;;;19.17;2.88;;;;;;;;;;5073138;28;20024;-40
2023/01/10 14:14:38;;;;;;;20.50;2.38;;;;;;;;;;5072494;28;20039;-40
2023/01/10 14:17:14;;;;;;;20.88;2.20;;;;;;;;;;5060855;28;20032;-40
2023/01/10 14:19:41;;;;;;;12.13;2.47;;;;;;;;;;5073442;28;20032;-40
2023/01/10 14:22:21;;;;;;;12.30;1.90;;;;;;;;;;5073785;28;20104;-40
2023/01/10 14:24:50;;;;;;;13.25;2.65;;;;;;;;;;5073703;28;20055;-41
2023/01/10 14:27:17;;;;;;;15.63;3.03;;;;;;;;;;5073656;28;20036;-41
2023/01/10 14:30:03;;;;;;;12.32;2.58;;;;;;;;;;5073043;28;20028;-39
2023/01/10 14:32:32;;;;;;;45.65;4.43;;;;;;;;;;5073532;28;20389;-39
2023/01/10 14:35:01;;;;;;;16.75;2.75;;;;;;;;;;5073517;28;20162;-40
2023/01/10 14:37:30;;;;;;;20.17;3.22;;;;;;;;;;5073478;28;20470;-41
2023/01/10 14:39:57;;;;;;;23.45;3.10;;;;;;;;;;5073207;28;20039;-40
2023/01/10 14:42:24;;;;;;;13.75;2.90;;;;;;;;;;5073342;28;20021;-41
2023/01/10 14:44:50;;;;;;;;;;;;;;;;;;5073916;28;20074;-39
2023/01/10 14:47:28;;;;;;;18.38;3.33;;;;;;;;;;5073447;28;19908;-40
2023/01/10 14:50:31;;;;;;;21.92;3.85;;;;;;;;;;5068920;28;20474;-63
2023/01/10 14:52:58;;;;;;;30.85;3.05;;;;;;;;;;5061429;28;20035;-62
2023/01/10 14:55:24;;;;;;;23.57;4.23;;;;;;;;;;5050449;28;20021;-62
2023/01/10 14:57:53;;;;;;;21.88;3.45;;;;;;;;;;5059111;28;20101;-62
2023/01/10 15:00:24;;;;;;;12.73;3.75;;;;;;;;;;5054352;28;20032;-61
2023/01/10 15:02:50;;;;;;;37.88;9.70;;;;;;;;;;5068983;28;20548;-61
2023/01/10 15:05:21;;;;;;;44.67;9.27;;;;;;;;;;5067478;28;20036;-61
2023/01/10 15:07:47;;;;;;;26.63;8.00;;;;;;;;;;5068808;28;20025;-61
2023/01/10 15:10:24;;;;;;;30.15;8.73;;;;;;;;;;5051441;28;20036;-60
2023/01/10 15:12:54;;;;;;;29.60;6.70;;;;;;;;;;5066063;28;20390;-61
2023/01/10 15:15:23;;;;;;;28.25;6.82;;;;;;;;;;5068705;28;20021;-60
2023/01/10 15:17:49;;;;;;;24.95;7.05;;;;;;;;;;5068134;28;20025;-61
2023/01/10 15:20:16;;;;;;;22.52;5.97;;;;;;;;;;5068077;28;20107;-60
2023/01/10 15:22:54;;;;;;;29.73;7.03;;;;;;;;;;5068490;28;20060;-61
2023/01/10 15:25:21;;;;;;;24.40;6.40;;;;;;;;;;5068414;28;20025;-61
2023/01/10 15:27:49;;;;;;;16.98;5.93;;;;;;;;;;5068332;28;20017;-60
2023/01/10 15:30:15;;;;;;;;;;;;;;;;;;5068382;28;20056;-60
2023/01/10 15:32:41;;;;;;;17.90;6.05;;;;;;;;;;5068156;28;19947;-61
2023/01/10 15:35:07;;;;;;;18.75;6.18;;;;;;;;;;5068261;28;20020;-61
2023/01/10 15:37:37;;;;;;;18.73;6.50;;;;;;;;;;5068086;28;20051;-60
2023/01/10 15:40:04;;;;;;;19.38;5.50;;;;;;;;;;5067601;28;20032;-61
2023/01/10 15:42:30;;;;;;;14.02;5.90;;;;;;;;;;5067249;28;20032;-60
2023/01/10 15:44:57;;;;;;;20.45;6.55;;;;;;;;;;5066435;28;20021;-60
2023/01/10 15:47:39;;;;;;;15.13;4.70;;;;;;;;;;5066480;28;20390;-61
2023/01/10 15:50:18;;;;;;;16.08;4.65;;;;;;;;;;5065944;28;20025;-60
2023/01/10 15:52:48;;;;;;;11.55;4.68;;;;;;;;;;5066348;28;20100;-61
2023/01/10 15:55:33;;;;;;;15.95;4.32;;;;;;;;;;5066294;28;20021;-60
2023/01/10 15:58:00;;;;;;;12.82;4.82;;;;;;;;;;5068042;28;20356;-60
2023/01/10 16:00:26;;;;;;;9.52;4.43;;;;;;;;;;5053061;28;20022;-60
2023/01/10 16:02:52;;;;;;;14.98;4.93;;;;;;;;;;5042330;28;20017;-60
2023/01/10 16:05:20;;;;;;;9.45;4.22;;;;;;;;;;5054527;28;20510;-60
2023/01/10 16:07:46;;;;;;;10.75;4.00;;;;;;;;;;5054135;28;20438;-61
2023/01/10 16:10:20;;;;;;;15.07;4.82;;;;;;;;;;5053907;28;20146;-61
2023/01/10 16:15:32;;;;;;;13.48;3.92;;;;;;;;;;5054318;28;20032;-60
2023/01/10 16:17:58;;;;;;;11.55;4.65;;;;;;;;;;5054110;28;20028;-60
2023/01/10 16:20:27;;;;;;;13.32;4.22;;;;;;;;;;5053795;28;20107;-60
2023/01/10 16:22:54;;;;;;;12.85;3.95;;;;;;;;;;5054321;28;20398;-60
2023/01/10 16:25:24;;;;;;;10.10;4.32;;;;;;;;;;5054070;28;20086;-60
2023/01/10 16:27:50;;;;;;;9.60;3.20;;;;;;;;;;5054027;28;20033;-60
2023/01/10 16:30:24;;;;;;;10.57;3.67;;;;;;;;;;5053718;28;20515;-60
2023/01/10 16:32:51;;;;;;;21.67;4.15;;;;;;;;;;5054016;28;20092;-61
2023/01/10 16:35:18;;;;;;;7.13;3.13;;;;;;;;;;5054161;28;20076;-60
2023/01/10 16:37:44;;;;;;;7.78;3.38;;;;;;;;;;5053882;28;20087;-61
2023/01/10 16:40:15;;;;;;;8.93;3.78;;;;;;;;;;5053504;28;20040;-61
2023/01/10 16:45:26;;;;;;;9.55;3.05;;;;;;;;;;5053715;28;20048;-60
2023/01/10 16:47:52;;;;;;;6.95;3.20;;;;;;;;;;5053788;28;20029;-60
2023/01/10 16:50:19;;;;;;;7.85;3.38;;;;;;;;;;5053171;28;20025;-61
2023/01/10 16:52:45;;;;;;;7.90;3.87;;;;;;;;;;5053747;28;20479;-61
2023/01/10 16:55:19;;;;;;;6.25;3.20;;;;;;;;;;5053591;28;20258;-60
2023/01/10 16:57:47;;;;;;;8.65;4.00;;;;;;;;;;5053329;28;20051;-60
2023/01/10 17:00:14;;;;;;;11.25;4.93;;;;;;;;;;5045026;28;20030;-60
2023/01/10 17:02:42;;;;;;;3.60;2.88;;;;;;;;;;5033641;28;20021;-60
2023/01/10 17:05:09;;;;;;;7.88;3.38;;;;;;;;;;5033565;28;20029;-60
2023/01/10 17:07:35;;;;;;;11.77;3.08;;;;;;;;;;5033423;28;20033;-60
2023/01/10 17:10:01;;;;;;;6.60;2.60;;;;;;;;;;5032788;28;20025;-60
2023/01/10 17:12:30;;;;;;;8.77;3.28;;;;;;;;;;5030998;28;20067;-60
2023/01/10 17:14:57;;;;;;;5.57;2.53;;;;;;;;;;5033275;28;20033;-61
2023/01/10 17:17:23;;;;;;;6.63;3.40;;;;;;;;;;5033276;28;20018;-60
2023/01/10 17:19:49;;;;;;;11.80;2.63;;;;;;;;;;5032763;28;20041;-60
2023/01/10 17:22:15;;;;;;;4.93;3.10;;;;;;;;;;5033269;28;20053;-61
2023/01/10 17:24:41;;;;;;;7.53;3.08;;;;;;;;;;5033088;28;20029;-60
2023/01/10 17:27:07;;;;;;;7.95;3.28;;;;;;;;;;5036401;28;20028;-60
2023/01/10 17:29:34;;;;;;;6.40;2.78;;;;;;;;;;5052590;28;20028;-60
2023/01/10 17:32:00;;;;;;;6.22;3.35;;;;;;;;;;5052947;28;20048;-61
2023/01/10 17:34:26;;;;;;;5.05;2.38;;;;;;;;;;5052816;28;20017;-60
2023/01/10 17:36:52;;;;;;;4.45;2.85;;;;;;;;;;5052789;28;20032;-60
2023/01/10 17:39:18;;;;;;;7.00;3.08;;;;;;;;;;5052335;28;20100;-60
2023/01/10 17:41:44;;;;;;;6.05;2.33;;;;;;;;;;5052570;28;20379;-60
2023/01/10 17:44:10;;;;;;;5.05;2.97;;;;;;;;;;5052344;28;20071;-61
2023/01/10 17:46:36;;;;;;;4.18;2.60;;;;;;;;;;5052502;28;20028;-60
2023/01/10 17:49:02;;;;;;;7.20;3.30;;;;;;;;;;5051948;28;20057;-62
2023/01/10 17:51:28;;;;;;;12.52;3.28;;;;;;;;;;5052550;28;20394;-62
2023/01/10 17:53:54;;;;;;;9.88;3.20;;;;;;;;;;5052282;28;20025;-62
2023/01/10 17:56:21;;;;;;;17.33;3.40;;;;;;;;;;5052484;28;20025;-61
2023/01/10 17:58:47;;;;;;;13.63;2.92;;;;;;;;;;5052137;28;20036;-60
2023/01/10 18:01:17;;;;;;;9.20;3.53;;;;;;;;;;5036973;28;20025;-61
2023/01/10 18:03:43;;;;;;;14.32;3.60;;;;;;;;;;5032551;28;20021;-61
2023/01/10 18:06:09;;;;;;;24.67;4.45;;;;;;;;;;5032342;28;20033;-61
2023/01/10 18:08:35;;;;;;;21.38;3.15;;;;;;;;;;5031896;28;20446;-61
2023/01/10 18:11:02;;;;;;;19.45;4.15;;;;;;;;;;5032172;28;20021;-62
2023/01/10 18:13:31;;;;;;;20.15;4.97;;;;;;;;;;5032221;28;20021;-62
2023/01/10 18:15:57;;;;;;;18.50;4.78;;;;;;;;;;5032238;28;20097;-61
2023/01/10 18:18:25;;;;;;;17.08;4.35;;;;;;;;;;5032127;28;20660;-61
2023/01/10 18:20:56;;;;;;;15.95;4.25;;;;;;;;;;5031910;28;20041;-61
2023/01/10 18:23:25;;;;;;;18.10;4.32;;;;;;;;;;5031809;28;20032;-62
2023/01/10 18:25:55;;;;;;;14.73;3.72;;;;;;;;;;5032146;28;20018;-60
2023/01/10 18:28:21;;;;;;;15.45;3.47;;;;;;;;;;5045379;28;20143;-60
2023/01/10 18:30:47;;;;;;;13.88;3.65;;;;;;;;;;5048072;28;20025;-60
2023/01/10 18:33:13;;;;;;;10.60;3.72;;;;;;;;;;5048006;28;20093;-61
2023/01/10 18:35:39;;;;;;;11.10;3.85;;;;;;;;;;5051625;28;20100;-62
2023/01/10 18:38:05;;;;;;;13.40;3.03;;;;;;;;;;5051825;28;20171;-61
2023/01/10 18:40:31;;;;;;;17.67;3.92;;;;;;;;;;5036666;28;20495;-64
2023/01/10 18:42:57;;;;;;;20.15;3.90;;;;;;;;;;5031729;28;20116;-61
2023/01/10 18:45:26;;;;;;;14.07;3.20;;;;;;;;;;5047717;28;20483;-62
2023/01/10 18:50:21;;;;;;;23.90;3.83;;;;;;;;;;5027485;28;20058;-57
2023/01/10 18:52:47;;;;;;;25.60;4.22;;;;;;;;;;5030253;28;20061;-57
2023/01/10 18:55:13;;;;;;;24.23;3.65;;;;;;;;;;5031711;28;20067;-57
2023/01/10 18:57:39;;;;;;;20.67;3.58;;;;;;;;;;5031731;28;20029;-57
2023/01/10 19:00:05;;;;;;;15.90;3.28;;;;;;;;;;5031290;28;20025;-58
2023/01/10 19:02:31;;;;;;;32.90;4.53;;;;;;;;;;5031693;28;20064;-57
2023/01/10 19:04:57;;;;;;;28.50;4.75;;;;;;;;;;5032101;28;20057;-57
2023/01/10 19:07:24;;;;;;;20.52;3.88;;;;;;;;;;5032028;28;20547;-56
2023/01/10 19:09:49;;;;;;;15.90;3.25;;;;;;;;;;5031220;28;20152;-58
2023/01/10 19:12:16;;;;;;;38.60;4.32;;;;;;;;;;5031758;28;20399;-58
2023/01/10 19:14:41;;;;;;;19.83;4.20;;;;;;;;;;5032184;28;20017;-57
2023/01/10 19:17:07;;;;;;;22.50;6.68;;;;;;;;;;5031569;28;20026;-57
2023/01/10 19:19:34;;;;;;;34.88;10.00;;;;;;;;;;5031356;28;20032;-56
2023/01/10 19:22:00;;;;;;;25.27;8.35;;;;;;;;;;5031497;28;20048;-57
2023/01/10 19:24:28;;;;;;;23.00;8.05;;;;;;;;;;5031939;28;20025;-56
2023/01/10 19:26:54;;;;;;;26.50;7.72;;;;;;;;;;5030700;28;20527;-57
2023/01/10 19:29:21;;;;;;;19.55;8.18;;;;;;;;;;5030844;28;20030;-57
2023/01/10 19:31:48;;;;;;;21.67;8.88;;;;;;;;;;5031501;28;20029;-56
2023/01/10 19:34:14;;;;;;;22.10;9.40;;;;;;;;;;5030312;28;20028;-59
2023/01/10 19:36:40;;;;;;;30.10;8.18;;;;;;;;;;5034273;28;20442;-57
2023/01/10 19:39:07;;;;;;;24.60;7.18;;;;;;;;;;5035465;28;20105;-56
2023/01/10 19:41:34;;;;;;;22.15;7.47;;;;;;;;;;5035374;28;20029;-58
2023/01/10 19:44:01;;;;;;;21.23;7.60;;;;;;;;;;5035328;28;20034;-56
2023/01/10 19:46:30;;;;;;;14.43;6.47;;;;;;;;;;5033945;28;20479;-56
2023/01/10 19:48:56;;;;;;;18.65;5.93;;;;;;;;;;5034658;28;20116;-58
2023/01/10 19:51:22;;;;;;;14.57;5.93;;;;;;;;;;5035022;28;20029;-58
2023/01/10 19:53:48;;;;;;;21.83;6.43;;;;;;;;;;5035047;28;20167;-58
2023/01/10 19:56:20;;;;;;;22.30;6.28;;;;;;;;;;5033671;28;20053;-58
2023/01/10 19:58:47;;;;;;;13.23;5.78;;;;;;;;;;5035227;28;20485;-58
2023/01/10 20:01:14;;;;;;;27.00;7.22;;;;;;;;;;5034798;28;20468;-58
2023/01/10 20:03:41;;;;;;;22.27;6.10;;;;;;;;;;5033711;28;20464;-57
2023/01/10 20:06:08;;;;;;;21.33;7.57;;;;;;;;;;5034638;28;20368;-57
2023/01/10 20:08:34;;;;;;;;;;;;;;;;;;5034910;28;20025;-59
2023/01/10 20:11:04;;;;;;;16.00;5.70;;;;;;;;;;5034637;28;19975;-58
2023/01/10 20:13:30;;;;;;;18.40;5.40;;;;;;;;;;5034566;28;20462;-57
2023/01/10 20:15:56;;;;;;;19.83;5.40;;;;;;;;;;5034748;28;20025;-57
2023/01/10 20:18:22;;;;;;;18.55;5.95;;;;;;;;;;5034418;28;20450;-57
2023/01/10 20:20:48;;;;;;;12.20;4.90;;;;;;;;;;5034127;28;20048;-58
2023/01/10 20:23:16;;;;;;;18.20;6.85;;;;;;;;;;5034526;28;20449;-58
2023/01/10 20:25:42;;;;;;;20.02;5.78;;;;;;;;;;5034114;28;20018;-58
2023/01/10 20:28:08;;;;;;;19.83;6.68;;;;;;;;;;5034063;28;20033;-59
2023/01/10 20:30:36;;;;;;;15.35;5.68;;;;;;;;;;5033755;28;20036;-56
2023/01/10 20:33:02;;;;;;;11.18;4.85;;;;;;;;;;5034301;28;20383;-59
2023/01/10 20:35:28;;;;;;;16.55;5.10;;;;;;;;;;5034026;28;20029;-59
2023/01/10 20:37:54;;;;;;;15.27;4.70;;;;;;;;;;5033938;28;20030;-60
2023/01/10 20:40:21;;;;;;;11.00;4.43;;;;;;;;;;5033793;28;20093;-57
2023/01/10 20:42:47;;;;;;;;;;;;;;;;;;5034401;28;20135;-57
2023/01/10 20:45:13;;;;;;;10.23;4.93;;;;;;;;;;5032060;28;20012;-56
2023/01/10 20:47:39;;;;;;;11.45;5.85;;;;;;;;;;5033602;28;20029;-57
2023/01/10 20:50:05;;;;;;;16.30;5.35;;;;;;;;;;5033294;28;20042;-57
2023/01/10 20:52:31;;;;;;;16.13;5.07;;;;;;;;;;5033652;28;20060;-58
2023/01/10 20:54:57;;;;;;;16.65;4.70;;;;;;;;;;5033615;28;20037;-59
2023/01/10 20:57:23;;;;;;;11.23;4.18;;;;;;;;;;5033676;28;20082;-57
2023/01/10 20:59:49;;;;;;;9.88;4.15;;;;;;;;;;5033452;28;20105;-60
2023/01/10 21:02:15;;;;;;;10.82;4.88;;;;;;;;;;5033600;28;20107;-59
2023/01/10 21:04:41;;;;;;;8.88;4.28;;;;;;;;;;5033570;28;20174;-59
2023/01/10 21:07:07;;;;;;;12.20;4.57;;;;;;;;;;5033518;28;20554;-60
2023/01/10 21:09:33;;;;;;;8.02;4.18;;;;;;;;;;5032919;28;20030;-58
2023/01/10 21:11:59;;;;;;;9.70;4.45;;;;;;;;;;5033363;28;20387;-58
2023/01/10 21:14:25;;;;;;;12.32;4.82;;;;;;;;;;5033587;28;20029;-59
2023/01/10 21:16:51;;;;;;;13.07;4.45;;;;;;;;;;5032007;28;20083;-58
2023/01/10 21:19:17;;;;;;;14.93;4.55;;;;;;;;;;5032766;28;20476;-59
2023/01/10 21:21:43;;;;;;;13.02;4.53;;;;;;;;;;5033244;28;20060;-59
2023/01/10 21:24:10;;;;;;;10.95;4.75;;;;;;;;;;5033195;28;20060;-60
2023/01/10 21:26:36;;;;;;;11.77;4.25;;;;;;;;;;5031936;28;20159;-59